sensor_id;sensor_type;location;lat;lon;timestamp;pressure;altitude;pressure_sealevel;temperature;humidity
63399;BME280;49533;-34.520;150.798;2023-06-10T00:00:30;101228.09;;;16.12;44.71
63399;BME280;49533;-34.520;150.798;2023-06-10T00:02:57;101227.63;;;16.19;44.74
63399;BME280;49533;-34.520;150.798;2023-06-10T00:05:26;101188.81;;;15.99;44.45
63399;BME280;49533;-34.520;150.798;2023-06-10T00:07:56;101225.78;;;16.32;44.88
63399;BME280;49533;-34.520;150.798;2023-06-10T00:10:25;101231.91;;;16.37;44.22
63399;BME280;49533;-34.520;150.798;2023-06-10T00:12:55;101165.59;;;15.97;44.16
63399;BME280;49533;-34.520;150.798;2023-06-10T00:15:30;100907.63;;;14.45;44.16
63399;BME280;49533;-34.520;150.798;2023-06-10T00:17:58;101131.03;;;15.75;44.19
63399;BME280;49533;-34.520;150.798;2023-06-10T00:20:29;101233.09;;;16.57;44.24
63399;BME280;49533;-34.520;150.798;2023-06-10T00:23:09;101233.72;;;16.63;44.29
63399;BME280;49533;-34.520;150.798;2023-06-10T00:25:37;101102.13;;;15.86;43.85
63399;BME280;49533;-34.520;150.798;2023-06-10T00:28:04;101226.38;;;16.76;44.05
63399;BME280;49533;-34.520;150.798;2023-06-10T00:30:32;101152.56;;;16.32;44.10
63399;BME280;49533;-34.520;150.798;2023-06-10T00:33:02;101221.22;;;16.83;43.67
63399;BME280;49533;-34.520;150.798;2023-06-10T00:35:29;101215.53;;;16.88;43.94
63399;BME280;49533;-34.520;150.798;2023-06-10T00:37:56;101221.16;;;16.91;43.70
63399;BME280;49533;-34.520;150.798;2023-06-10T00:40:24;101214.97;;;16.94;43.45
63399;BME280;49533;-34.520;150.798;2023-06-10T00:42:51;101216.72;;;16.99;43.68
63399;BME280;49533;-34.520;150.798;2023-06-10T00:45:21;101197.13;;;16.88;43.57
63399;BME280;49533;-34.520;150.798;2023-06-10T00:47:51;101215.53;;;17.09;43.41
63399;BME280;49533;-34.520;150.798;2023-06-10T00:50:18;101222.63;;;17.10;43.45
63399;BME280;49533;-34.520;150.798;2023-06-10T00:52:45;101214.66;;;17.17;43.26
63399;BME280;49533;-34.520;150.798;2023-06-10T00:55:17;101158.09;;;16.83;41.29
63399;BME280;49533;-34.520;150.798;2023-06-10T00:57:45;101185.22;;;17.05;42.12
63399;BME280;49533;-34.520;150.798;2023-06-10T01:00:15;101076.38;;;16.38;41.78
63399;BME280;49533;-34.520;150.798;2023-06-10T01:02:42;100978.53;;;15.79;40.90
63399;BME280;49533;-34.520;150.798;2023-06-10T01:05:10;101144.00;;;16.84;40.88
63399;BME280;49533;-34.520;150.798;2023-06-10T01:07:48;101171.50;;;17.05;41.44
63399;BME280;49533;-34.520;150.798;2023-06-10T01:10:29;101195.16;;;17.10;41.62
63399;BME280;49533;-34.520;150.798;2023-06-10T01:13:02;101182.88;;;17.16;41.88
63399;BME280;49533;-34.520;150.798;2023-06-10T01:15:30;101106.16;;;16.78;41.74
63399;BME280;49533;-34.520;150.798;2023-06-10T01:18:01;101182.56;;;17.30;42.15
63399;BME280;49533;-34.520;150.798;2023-06-10T01:20:29;101172.88;;;17.32;42.20
63399;BME280;49533;-34.520;150.798;2023-06-10T01:22:59;101115.09;;;17.08;42.22
63399;BME280;49533;-34.520;150.798;2023-06-10T01:25:27;101151.69;;;17.33;42.49
63399;BME280;49533;-34.520;150.798;2023-06-10T01:28:07;101160.34;;;17.44;42.34
63399;BME280;49533;-34.520;150.798;2023-06-10T01:30:55;101151.41;;;17.47;42.57
63399;BME280;49533;-34.520;150.798;2023-06-10T01:33:29;101139.84;;;17.41;42.63
63399;BME280;49533;-34.520;150.798;2023-06-10T01:35:59;101130.44;;;17.42;42.51
63399;BME280;49533;-34.520;150.798;2023-06-10T01:38:32;101105.22;;;17.28;42.47
63399;BME280;49533;-34.520;150.798;2023-06-10T01:41:01;101133.31;;;17.46;42.49
63399;BME280;49533;-34.520;150.798;2023-06-10T01:43:28;101150.88;;;17.66;42.42
63399;BME280;49533;-34.520;150.798;2023-06-10T01:45:55;101141.94;;;17.69;42.32
63399;BME280;49533;-34.520;150.798;2023-06-10T01:48:22;101128.66;;;17.58;42.34
63399;BME280;49533;-34.520;150.798;2023-06-10T01:50:49;101128.31;;;17.60;42.09
63399;BME280;49533;-34.520;150.798;2023-06-10T01:53:16;101159.97;;;17.78;42.16
63399;BME280;49533;-34.520;150.798;2023-06-10T01:55:43;101150.63;;;17.79;42.18
63399;BME280;49533;-34.520;150.798;2023-06-10T01:58:10;101131.22;;;17.76;40.23
63399;BME280;49533;-34.520;150.798;2023-06-10T02:00:37;101135.81;;;17.84;40.80
63399;BME280;49533;-34.520;150.798;2023-06-10T02:03:05;101114.25;;;17.74;39.05
63399;BME280;49533;-34.520;150.798;2023-06-10T02:05:32;101129.53;;;17.84;38.13
63399;BME280;49533;-34.520;150.798;2023-06-10T02:08:00;101126.09;;;17.87;38.84
63399;BME280;49533;-34.520;150.798;2023-06-10T02:10:27;101090.22;;;17.71;38.42
63399;BME280;49533;-34.520;150.798;2023-06-10T02:12:55;101043.81;;;17.45;38.05
63399;BME280;49533;-34.520;150.798;2023-06-10T02:15:22;101117.97;;;17.90;38.33
63399;BME280;49533;-34.520;150.798;2023-06-10T02:17:49;101060.31;;;17.57;37.55
63399;BME280;49533;-34.520;150.798;2023-06-10T02:20:17;101064.66;;;17.58;37.91
63399;BME280;49533;-34.520;150.798;2023-06-10T02:22:44;100996.41;;;17.23;37.64
63399;BME280;49533;-34.520;150.798;2023-06-10T02:25:11;101116.75;;;18.00;37.80
63399;BME280;49533;-34.520;150.798;2023-06-10T02:27:38;101077.50;;;17.78;37.56
63399;BME280;49533;-34.520;150.798;2023-06-10T02:30:05;101113.75;;;18.05;37.39
63399;BME280;49533;-34.520;150.798;2023-06-10T02:32:33;101112.59;;;18.06;37.12
63399;BME280;49533;-34.520;150.798;2023-06-10T02:35:00;101113.41;;;18.07;37.67
63399;BME280;49533;-34.520;150.798;2023-06-10T02:37:27;101087.38;;;17.92;36.52
63399;BME280;49533;-34.520;150.798;2023-06-10T02:39:55;101112.59;;;18.06;36.98
63399;BME280;49533;-34.520;150.798;2023-06-10T02:42:22;101079.72;;;17.85;36.49
63399;BME280;49533;-34.520;150.798;2023-06-10T02:44:50;101111.13;;;18.09;36.79
63399;BME280;49533;-34.520;150.798;2023-06-10T02:47:17;100952.44;;;17.11;37.28
63399;BME280;49533;-34.520;150.798;2023-06-10T02:49:44;101092.09;;;18.03;37.26
63399;BME280;49533;-34.520;150.798;2023-06-10T02:52:11;101111.22;;;18.12;37.31
63399;BME280;49533;-34.520;150.798;2023-06-10T02:54:38;101069.31;;;17.91;37.46
63399;BME280;49533;-34.520;150.798;2023-06-10T02:57:06;101101.47;;;18.15;37.53
63399;BME280;49533;-34.520;150.798;2023-06-10T02:59:33;101096.81;;;18.15;37.65
63399;BME280;49533;-34.520;150.798;2023-06-10T03:02:01;101082.69;;;18.17;37.12
63399;BME280;49533;-34.520;150.798;2023-06-10T03:04:28;101078.00;;;18.17;37.41
63399;BME280;49533;-34.520;150.798;2023-06-10T03:06:57;101078.00;;;18.17;37.09
63399;BME280;49533;-34.520;150.798;2023-06-10T03:09:24;100894.22;;;17.05;37.53
63399;BME280;49533;-34.520;150.798;2023-06-10T03:11:51;101070.75;;;18.25;37.95
63399;BME280;49533;-34.520;150.798;2023-06-10T03:14:18;101018.88;;;17.99;38.18
63399;BME280;49533;-34.520;150.798;2023-06-10T03:16:46;101005.75;;;17.92;38.58
63399;BME280;49533;-34.520;150.798;2023-06-10T03:19:13;101069.03;;;18.33;38.16
63399;BME280;49533;-34.520;150.798;2023-06-10T03:21:44;101067.44;;;18.32;38.27
63399;BME280;49533;-34.520;150.798;2023-06-10T03:24:11;100995.06;;;17.91;38.69
63399;BME280;49533;-34.520;150.798;2023-06-10T03:26:38;101032.16;;;18.09;38.60
63399;BME280;49533;-34.520;150.798;2023-06-10T03:29:06;101048.31;;;18.23;38.71
63399;BME280;49533;-34.520;150.798;2023-06-10T03:31:33;101062.72;;;18.32;38.37
63399;BME280;49533;-34.520;150.798;2023-06-10T03:34:02;100878.88;;;17.16;38.16
63399;BME280;49533;-34.520;150.798;2023-06-10T03:36:29;101043.41;;;18.16;38.20
63399;BME280;49533;-34.520;150.798;2023-06-10T03:38:56;101041.44;;;18.17;36.58
63399;BME280;49533;-34.520;150.798;2023-06-10T03:41:23;101058.72;;;18.30;37.92
63399;BME280;49533;-34.520;150.798;2023-06-10T03:43:52;101021.06;;;18.06;37.65
63399;BME280;49533;-34.520;150.798;2023-06-10T03:46:19;101060.69;;;18.29;37.82
63399;BME280;49533;-34.520;150.798;2023-06-10T03:48:46;101035.03;;;18.13;38.28
63399;BME280;49533;-34.520;150.798;2023-06-10T03:51:14;101029.41;;;18.09;38.39
63399;BME280;49533;-34.520;150.798;2023-06-10T03:53:41;101052.75;;;18.28;39.08
63399;BME280;49533;-34.520;150.798;2023-06-10T03:56:08;101020.28;;;18.05;39.19
63399;BME280;49533;-34.520;150.798;2023-06-10T03:58:35;100999.88;;;17.94;38.98
63399;BME280;49533;-34.520;150.798;2023-06-10T04:01:02;101042.91;;;18.27;39.29
63399;BME280;49533;-34.520;150.798;2023-06-10T04:03:29;101020.47;;;18.12;39.56
63399;BME280;49533;-34.520;150.798;2023-06-10T04:05:57;101011.66;;;18.07;39.09
63399;BME280;49533;-34.520;150.798;2023-06-10T04:08:25;101044.50;;;18.28;39.18
63399;BME280;49533;-34.520;150.798;2023-06-10T04:10:52;101044.50;;;18.28;39.14
63399;BME280;49533;-34.520;150.798;2023-06-10T04:13:19;101008.81;;;18.03;39.43
63399;BME280;49533;-34.520;150.798;2023-06-10T04:15:46;101045.34;;;18.28;39.32
63399;BME280;49533;-34.520;150.798;2023-06-10T04:18:14;101042.13;;;18.26;39.01
63399;BME280;49533;-34.520;150.798;2023-06-10T04:20:42;101007.19;;;18.02;38.61
63399;BME280;49533;-34.520;150.798;2023-06-10T04:23:10;101045.34;;;18.28;38.35
63399;BME280;49533;-34.520;150.798;2023-06-10T04:25:37;100977.91;;;17.81;38.49
63399;BME280;49533;-34.520;150.798;2023-06-10T04:28:04;101014.31;;;18.03;38.17
63399;BME280;49533;-34.520;150.798;2023-06-10T04:30:31;101039.72;;;18.24;38.46
63399;BME280;49533;-34.520;150.798;2023-06-10T04:32:59;100993.13;;;17.91;38.00
63399;BME280;49533;-34.520;150.798;2023-06-10T04:35:26;101045.91;;;18.21;38.86
63399;BME280;49533;-34.520;150.798;2023-06-10T04:37:54;100996.25;;;17.90;38.87
63399;BME280;49533;-34.520;150.798;2023-06-10T04:40:21;100972.50;;;17.73;39.13
63399;BME280;49533;-34.520;150.798;2023-06-10T04:42:49;101045.44;;;18.19;39.34
63399;BME280;49533;-34.520;150.798;2023-06-10T04:45:16;101044.31;;;18.20;39.49
63399;BME280;49533;-34.520;150.798;2023-06-10T04:47:43;100981.09;;;17.84;39.89
63399;BME280;49533;-34.520;150.798;2023-06-10T04:50:11;101016.81;;;18.08;39.80
63399;BME280;49533;-34.520;150.798;2023-06-10T04:52:38;100981.09;;;17.96;39.38
63399;BME280;49533;-34.520;150.798;2023-06-10T04:55:08;101023.91;;;18.21;39.07
63399;BME280;49533;-34.520;150.798;2023-06-10T04:57:36;101039.84;;;18.28;39.47
63399;BME280;49533;-34.520;150.798;2023-06-10T05:00:03;101041.66;;;18.24;40.01
63399;BME280;49533;-34.520;150.798;2023-06-10T05:02:32;100997.50;;;17.92;40.35
63399;BME280;49533;-34.520;150.798;2023-06-10T05:04:59;101032.16;;;18.21;40.47
63399;BME280;49533;-34.520;150.798;2023-06-10T05:07:26;101023.59;;;18.11;40.56
63399;BME280;49533;-34.520;150.798;2023-06-10T05:09:53;100960.72;;;17.72;40.62
63399;BME280;49533;-34.520;150.798;2023-06-10T05:12:21;101017.16;;;18.07;41.03
63399;BME280;49533;-34.520;150.798;2023-06-10T05:14:49;100970.69;;;17.77;40.85
63399;BME280;49533;-34.520;150.798;2023-06-10T05:17:16;101044.88;;;18.26;40.97
63399;BME280;49533;-34.520;150.798;2023-06-10T05:19:43;101036.88;;;18.21;41.01
63399;BME280;49533;-34.520;150.798;2023-06-10T05:22:10;100961.03;;;17.71;40.98
63399;BME280;49533;-34.520;150.798;2023-06-10T05:24:37;101056.78;;;18.30;41.19
63399;BME280;49533;-34.520;150.798;2023-06-10T05:27:05;101065.84;;;18.31;41.39
63399;BME280;49533;-34.520;150.798;2023-06-10T05:29:33;101061.16;;;18.31;41.25
63399;BME280;49533;-34.520;150.798;2023-06-10T05:32:00;100998.28;;;17.93;41.17
63399;BME280;49533;-34.520;150.798;2023-06-10T05:34:30;100988.88;;;17.81;41.22
63399;BME280;49533;-34.520;150.798;2023-06-10T05:36:57;101073.03;;;18.35;41.01
63399;BME280;49533;-34.520;150.798;2023-06-10T05:39:24;101073.03;;;18.35;41.17
63399;BME280;49533;-34.520;150.798;2023-06-10T05:41:51;101019.03;;;18.02;41.26
63399;BME280;49533;-34.520;150.798;2023-06-10T05:44:18;101060.91;;;18.24;41.56
63399;BME280;49533;-34.520;150.798;2023-06-10T05:46:46;101030.81;;;18.03;41.43
63399;BME280;49533;-34.520;150.798;2023-06-10T05:49:13;101033.56;;;18.03;41.26
63399;BME280;49533;-34.520;150.798;2023-06-10T05:51:41;101094.00;;;18.40;41.34
63399;BME280;49533;-34.520;150.798;2023-06-10T05:54:08;101099.06;;;18.38;41.36
63399;BME280;49533;-34.520;150.798;2023-06-10T05:56:35;101098.38;;;18.41;41.46
63399;BME280;49533;-34.520;150.798;2023-06-10T05:59:02;101101.81;;;18.38;41.51
63399;BME280;49533;-34.520;150.798;2023-06-10T06:01:29;101034.03;;;17.93;41.54
63399;BME280;49533;-34.520;150.798;2023-06-10T06:03:56;101102.28;;;18.40;41.58
63399;BME280;49533;-34.520;150.798;2023-06-10T06:06:23;101089.91;;;18.21;41.35
63399;BME280;49533;-34.520;150.798;2023-06-10T06:08:50;101114.44;;;18.39;41.63
63399;BME280;49533;-34.520;150.798;2023-06-10T06:11:17;101068.72;;;18.10;41.75
63399;BME280;49533;-34.520;150.798;2023-06-10T06:13:44;101023.81;;;17.81;41.51
63399;BME280;49533;-34.520;150.798;2023-06-10T06:16:13;101119.25;;;18.42;41.80
63399;BME280;49533;-34.520;150.798;2023-06-10T06:18:42;101117.66;;;18.41;41.79
63399;BME280;49533;-34.520;150.798;2023-06-10T06:21:09;101117.19;;;18.39;41.87
63399;BME280;49533;-34.520;150.798;2023-06-10T06:23:37;101129.78;;;18.40;41.92
63399;BME280;49533;-34.520;150.798;2023-06-10T06:26:04;101090.03;;;18.13;42.08
63399;BME280;49533;-34.520;150.798;2023-06-10T06:28:31;101133.78;;;18.42;41.96
63399;BME280;49533;-34.520;150.798;2023-06-10T06:30:58;101113.03;;;18.33;42.12
63399;BME280;49533;-34.520;150.798;2023-06-10T06:33:25;101133.78;;;18.42;42.11
63399;BME280;49533;-34.520;150.798;2023-06-10T06:35:52;101135.75;;;18.42;42.03
63399;BME280;49533;-34.520;150.798;2023-06-10T06:38:19;101140.56;;;18.45;42.11
63399;BME280;49533;-34.520;150.798;2023-06-10T06:40:47;101150.44;;;18.46;41.96
63399;BME280;49533;-34.520;150.798;2023-06-10T06:43:14;101151.56;;;18.45;42.30
63399;BME280;49533;-34.520;150.798;2023-06-10T06:45:41;101143.31;;;18.45;42.17
63399;BME280;49533;-34.520;150.798;2023-06-10T06:48:08;101144.47;;;18.44;42.24
63399;BME280;49533;-34.520;150.798;2023-06-10T06:50:35;101129.34;;;18.25;42.12
63399;BME280;49533;-34.520;150.798;2023-06-10T06:53:03;101154.31;;;18.45;41.97
63399;BME280;49533;-34.520;150.798;2023-06-10T06:55:31;101164.84;;;18.43;42.13
63399;BME280;49533;-34.520;150.798;2023-06-10T06:57:58;101125.91;;;18.16;42.11
63399;BME280;49533;-34.520;150.798;2023-06-10T07:00:29;101108.50;;;18.00;42.06
63399;BME280;49533;-34.520;150.798;2023-06-10T07:02:56;101167.84;;;18.38;42.09
63399;BME280;49533;-34.520;150.798;2023-06-10T07:05:24;101174.59;;;18.40;42.15
63399;BME280;49533;-34.520;150.798;2023-06-10T07:07:54;101181.25;;;18.39;41.92
63399;BME280;49533;-34.520;150.798;2023-06-10T07:10:24;101183.44;;;18.46;41.94
63399;BME280;49533;-34.520;150.798;2023-06-10T07:12:52;101175.63;;;18.48;41.73
63399;BME280;49533;-34.520;150.798;2023-06-10T07:15:19;101181.13;;;18.48;41.75
63399;BME280;49533;-34.520;150.798;2023-06-10T07:17:46;101200.38;;;18.48;41.95
63399;BME280;49533;-34.520;150.798;2023-06-10T07:20:14;101194.88;;;18.48;41.80
63399;BME280;49533;-34.520;150.798;2023-06-10T07:22:42;101178.97;;;18.29;41.83
63399;BME280;49533;-34.520;150.798;2023-06-10T07:25:09;101199.94;;;18.46;41.86
63399;BME280;49533;-34.520;150.798;2023-06-10T07:27:36;101202.25;;;18.44;41.96
63399;BME280;49533;-34.520;150.798;2023-06-10T07:30:06;101206.94;;;18.43;41.91
63399;BME280;49533;-34.520;150.798;2023-06-10T07:32:34;101208.88;;;18.43;42.11
63399;BME280;49533;-34.520;150.798;2023-06-10T07:35:01;101211.19;;;18.41;41.93
63399;BME280;49533;-34.520;150.798;2023-06-10T07:37:28;101215.06;;;18.40;42.01
63399;BME280;49533;-34.520;150.798;2023-06-10T07:39:56;101215.06;;;18.40;42.03
63399;BME280;49533;-34.520;150.798;2023-06-10T07:42:24;101221.72;;;18.39;42.08
63399;BME280;49533;-34.520;150.798;2023-06-10T07:44:51;101161.53;;;18.00;42.06
63399;BME280;49533;-34.520;150.798;2023-06-10T07:47:18;101209.56;;;18.15;42.03
63399;BME280;49533;-34.520;150.798;2023-06-10T07:49:45;101207.03;;;18.22;41.86
63399;BME280;49533;-34.520;150.798;2023-06-10T07:52:12;101182.03;;;18.03;42.03
63399;BME280;49533;-34.520;150.798;2023-06-10T07:54:40;101109.25;;;17.43;41.75
63399;BME280;49533;-34.520;150.798;2023-06-10T07:57:07;101214.84;;;18.20;41.86
63399;BME280;49533;-34.520;150.798;2023-06-10T07:59:34;101233.66;;;18.31;42.06
63399;BME280;49533;-34.520;150.798;2023-06-10T08:02:02;101224.22;;;18.19;41.87
63399;BME280;49533;-34.520;150.798;2023-06-10T08:04:29;101195.22;;;17.97;41.87
63399;BME280;49533;-34.520;150.798;2023-06-10T08:06:57;101239.69;;;18.24;42.01
63399;BME280;49533;-34.520;150.798;2023-06-10T08:09:24;101199.44;;;17.95;42.10
63399;BME280;49533;-34.520;150.798;2023-06-10T08:11:51;101205.81;;;17.87;41.98
63399;BME280;49533;-34.520;150.798;2023-06-10T08:14:18;101258.34;;;18.06;42.06
63399;BME280;49533;-34.520;150.798;2023-06-10T08:16:45;101218.47;;;17.79;42.17
63399;BME280;49533;-34.520;150.798;2023-06-10T08:19:12;101264.09;;;18.13;42.14
63399;BME280;49533;-34.520;150.798;2023-06-10T08:21:40;101222.69;;;17.76;41.99
63399;BME280;49533;-34.520;150.798;2023-06-10T08:24:07;101268.19;;;18.07;42.16
63399;BME280;49533;-34.520;150.798;2023-06-10T08:26:35;101260.13;;;17.90;42.09
63399;BME280;49533;-34.520;150.798;2023-06-10T08:29:02;101284.91;;;18.02;42.17
63399;BME280;49533;-34.520;150.798;2023-06-10T08:31:30;101286.84;;;18.01;42.16
63399;BME280;49533;-34.520;150.798;2023-06-10T08:33:57;101287.53;;;17.98;42.33
63399;BME280;49533;-34.520;150.798;2023-06-10T08:36:27;101281.78;;;17.91;42.37
63399;BME280;49533;-34.520;150.798;2023-06-10T08:38:54;101173.75;;;17.24;42.30
63399;BME280;49533;-34.520;150.798;2023-06-10T08:41:24;101210.31;;;17.37;42.31
63399;BME280;49533;-34.520;150.798;2023-06-10T08:43:59;101224.78;;;17.46;42.32
63399;BME280;49533;-34.520;150.798;2023-06-10T08:46:31;101275.13;;;17.71;42.30
63399;BME280;49533;-34.520;150.798;2023-06-10T08:49:02;101288.34;;;17.78;42.26
63399;BME280;49533;-34.520;150.798;2023-06-10T08:51:31;101308.00;;;17.89;42.04
63399;BME280;49533;-34.520;150.798;2023-06-10T08:54:08;101301.44;;;17.81;42.18
63399;BME280;49533;-34.520;150.798;2023-06-10T08:56:40;101312.69;;;17.88;41.84
63399;BME280;49533;-34.520;150.798;2023-06-10T08:59:08;101280.13;;;17.57;41.79
63399;BME280;49533;-34.520;150.798;2023-06-10T09:01:36;101256.94;;;17.46;41.94
63399;BME280;49533;-34.520;150.798;2023-06-10T09:04:03;101294.38;;;17.50;41.49
63399;BME280;49533;-34.520;150.798;2023-06-10T09:06:32;101320.13;;;17.67;41.54
63399;BME280;49533;-34.520;150.798;2023-06-10T09:09:00;101323.53;;;17.64;41.69
63399;BME280;49533;-34.520;150.798;2023-06-10T09:11:28;101336.81;;;17.62;41.58
63399;BME280;49533;-34.520;150.798;2023-06-10T09:13:55;101328.59;;;17.62;41.71
63399;BME280;49533;-34.520;150.798;2023-06-10T09:16:22;101334.88;;;17.62;41.55
63399;BME280;49533;-34.520;150.798;2023-06-10T09:18:50;101331.97;;;17.58;41.60
63399;BME280;49533;-34.520;150.798;2023-06-10T09:21:22;101324.28;;;17.52;41.73
63399;BME280;49533;-34.520;150.798;2023-06-10T09:23:50;101334.13;;;17.53;41.84
63399;BME280;49533;-34.520;150.798;2023-06-10T09:26:19;101301.94;;;17.32;41.68
63399;BME280;49533;-34.520;150.798;2023-06-10T09:28:48;101301.03;;;17.28;41.63
63399;BME280;49533;-34.520;150.798;2023-06-10T09:31:16;101260.66;;;16.99;41.70
63399;BME280;49533;-34.520;150.798;2023-06-10T09:33:47;101292.22;;;17.14;41.55
63399;BME280;49533;-34.520;150.798;2023-06-10T09:36:22;101345.50;;;17.43;40.87
63399;BME280;49533;-34.520;150.798;2023-06-10T09:38:50;101337.66;;;17.32;41.07
63399;BME280;49533;-34.520;150.798;2023-06-10T09:41:17;101334.19;;;17.23;40.94
63399;BME280;49533;-34.520;150.798;2023-06-10T09:43:46;101349.13;;;17.34;41.35
63399;BME280;49533;-34.520;150.798;2023-06-10T09:46:16;101338.72;;;17.19;41.39
63399;BME280;49533;-34.520;150.798;2023-06-10T09:48:45;101354.81;;;17.29;41.60
63399;BME280;49533;-34.520;150.798;2023-06-10T09:51:14;101345.63;;;17.25;41.53
63399;BME280;49533;-34.520;150.798;2023-06-10T09:53:43;101323.28;;;17.06;41.86
63399;BME280;49533;-34.520;150.798;2023-06-10T09:56:14;101363.84;;;17.30;41.55
63399;BME280;49533;-34.520;150.798;2023-06-10T09:58:41;101359.50;;;17.29;41.48
63399;BME280;49533;-34.520;150.798;2023-06-10T10:01:11;101348.72;;;17.15;41.44
63399;BME280;49533;-34.520;150.798;2023-06-10T10:03:48;101366.78;;;17.25;41.48
63399;BME280;49533;-34.520;150.798;2023-06-10T10:06:18;101237.06;;;16.39;41.37
63399;BME280;49533;-34.520;150.798;2023-06-10T10:08:46;101364.56;;;17.18;41.48
63399;BME280;49533;-34.520;150.798;2023-06-10T10:11:17;101364.91;;;17.16;41.77
63399;BME280;49533;-34.520;150.798;2023-06-10T10:13:47;101338.31;;;17.00;41.49
63399;BME280;49533;-34.520;150.798;2023-06-10T10:16:18;101367.97;;;17.15;41.58
63399;BME280;49533;-34.520;150.798;2023-06-10T10:18:51;101348.66;;;17.03;41.75
63399;BME280;49533;-34.520;150.798;2023-06-10T10:21:23;101348.78;;;17.06;41.56
63399;BME280;49533;-34.520;150.798;2023-06-10T10:24:05;101365.41;;;17.10;41.51
63399;BME280;49533;-34.520;150.798;2023-06-10T10:26:35;101282.00;;;16.55;41.64
63399;BME280;49533;-34.520;150.798;2023-06-10T10:29:14;101322.59;;;16.79;41.92
63399;BME280;49533;-34.520;150.798;2023-06-10T10:31:43;101369.97;;;17.06;41.71
63399;BME280;49533;-34.520;150.798;2023-06-10T10:34:15;101368.34;;;17.05;41.62
63399;BME280;49533;-34.520;150.798;2023-06-10T10:36:43;101352.09;;;16.91;41.57
63399;BME280;49533;-34.520;150.798;2023-06-10T10:39:11;101364.00;;;17.04;41.39
63399;BME280;49533;-34.520;150.798;2023-06-10T10:41:39;101359.06;;;16.88;41.57
63399;BME280;49533;-34.520;150.798;2023-06-10T10:44:07;101375.94;;;16.99;41.38
63399;BME280;49533;-34.520;150.798;2023-06-10T10:46:49;101349.41;;;16.82;41.37
63399;BME280;49533;-34.520;150.798;2023-06-10T10:49:18;101378.09;;;16.93;41.09
63399;BME280;49533;-34.520;150.798;2023-06-10T10:51:56;101378.41;;;16.92;41.25
63399;BME280;49533;-34.520;150.798;2023-06-10T10:54:29;101364.53;;;16.88;41.37
63399;BME280;49533;-34.520;150.798;2023-06-10T10:57:13;101366.00;;;16.86;41.66
63399;BME280;49533;-34.520;150.798;2023-06-10T10:59:54;101374.22;;;16.86;41.51
63399;BME280;49533;-34.520;150.798;2023-06-10T11:02:36;101178.88;;;15.60;41.25
63399;BME280;49533;-34.520;150.798;2023-06-10T11:05:06;101359.56;;;16.73;41.58
63399;BME280;49533;-34.520;150.798;2023-06-10T11:07:35;101342.03;;;16.57;41.59
63399;BME280;49533;-34.520;150.798;2023-06-10T11:10:08;101367.13;;;16.76;41.51
63399;BME280;49533;-34.520;150.798;2023-06-10T11:12:56;101371.03;;;16.75;41.68
63399;BME280;49533;-34.520;150.798;2023-06-10T11:15:25;101340.28;;;16.52;41.67
63399;BME280;49533;-34.520;150.798;2023-06-10T11:18:11;101370.06;;;16.71;41.76
63399;BME280;49533;-34.520;150.798;2023-06-10T11:20:55;101342.66;;;16.53;41.69
63399;BME280;49533;-34.520;150.798;2023-06-10T11:23:39;101351.72;;;16.54;41.85
63399;BME280;49533;-34.520;150.798;2023-06-10T11:26:16;101370.09;;;16.62;41.94
63399;BME280;49533;-34.520;150.798;2023-06-10T11:29:04;101366.56;;;16.62;41.87
63399;BME280;49533;-34.520;150.798;2023-06-10T11:31:33;101344.34;;;16.37;41.88
63399;BME280;49533;-34.520;150.798;2023-06-10T11:34:03;101365.59;;;16.58;42.03
63399;BME280;49533;-34.520;150.798;2023-06-10T11:36:34;101361.25;;;16.57;42.14
63399;BME280;49533;-34.520;150.798;2023-06-10T11:39:05;101362.34;;;16.56;41.93
63399;BME280;49533;-34.520;150.798;2023-06-10T11:41:33;101331.09;;;16.39;41.99
63399;BME280;49533;-34.520;150.798;2023-06-10T11:44:04;101244.31;;;15.79;42.36
63399;BME280;49533;-34.520;150.798;2023-06-10T11:46:31;101321.47;;;16.24;42.19
63399;BME280;49533;-34.520;150.798;2023-06-10T11:48:59;101367.88;;;16.47;42.32
63399;BME280;49533;-34.520;150.798;2023-06-10T11:51:29;101290.69;;;16.01;42.28
63399;BME280;49533;-34.520;150.798;2023-06-10T11:53:56;101360.75;;;16.46;42.18
63399;BME280;49533;-34.520;150.798;2023-06-10T11:56:26;101299.56;;;16.07;42.27
63399;BME280;49533;-34.520;150.798;2023-06-10T11:58:56;101354.34;;;16.42;42.12
63399;BME280;49533;-34.520;150.798;2023-06-10T12:01:25;101358.19;;;16.41;42.11
63399;BME280;49533;-34.520;150.798;2023-06-10T12:03:59;101345.34;;;16.24;42.21
63399;BME280;49533;-34.520;150.798;2023-06-10T12:06:27;101363.53;;;16.37;42.34
63399;BME280;49533;-34.520;150.798;2023-06-10T12:08:55;101368.03;;;16.33;42.31
63399;BME280;49533;-34.520;150.798;2023-06-10T12:11:23;101357.91;;;16.34;42.29
63399;BME280;49533;-34.520;150.798;2023-06-10T12:13:50;101340.50;;;16.21;42.20
63399;BME280;49533;-34.520;150.798;2023-06-10T12:16:17;101355.78;;;16.30;42.40
63399;BME280;49533;-34.520;150.798;2023-06-10T12:18:46;101338.72;;;16.16;42.46
63399;BME280;49533;-34.520;150.798;2023-06-10T12:21:18;101327.47;;;16.00;42.42
63399;BME280;49533;-34.520;150.798;2023-06-10T12:24:00;101366.13;;;16.25;42.61
63399;BME280;49533;-34.520;150.798;2023-06-10T12:26:39;101321.19;;;15.91;42.56
63399;BME280;49533;-34.520;150.798;2023-06-10T12:29:18;101324.22;;;15.90;42.61